Terminal Aerodrome Forecast
Issued by NWS

Home | Current Version | Previous Version | Text Only | Print | Product List | Glossary Off
Versions: 1 2 3 4 5 6 7 8 9 10 11 12 13 14 15 16 17

777
FTUS42 KMHX 090851 AAB
TAFOAJ
TAF AMD
KOAJ 090851Z 0909/1006 01010KT P6SM RA OVC006
     FM091800 33010KT P6SM OVC007
     FM092200 31010KT P6SM OVC010
     FM100300 27010KT P6SM BKN015
     FM100400 27010KT P6SM BKN045
     FM100500 27010KT P6SM SCT060
      AMD LTD TO CLD VIS AND WIND=

USA.gov is the U.S. government's official web portal to all federal, state and local government web resources and services.